createdAt,value
2022-10-09T00:04:58.673Z,88.35
2022-10-09T00:10:01.347Z,88.66
2022-10-09T00:15:06.236Z,88.72
2022-10-09T00:20:09.218Z,88.93
2022-10-09T00:25:11.760Z,88.80
2022-10-09T00:30:14.381Z,88.64
2022-10-09T00:35:16.992Z,88.75
2022-10-09T00:40:19.615Z,88.98
2022-10-09T00:45:22.266Z,88.94
2022-10-09T00:50:31.026Z,89.30
2022-10-09T00:55:35.766Z,90.01
2022-10-09T01:00:38.450Z,90.01
2022-10-09T01:05:57.216Z,90.20
2022-10-09T01:11:09.752Z,89.85
2022-10-09T01:16:29.627Z,90.19
2022-10-09T01:21:41.053Z,90.13
2022-10-09T01:26:57.527Z,90.18
2022-10-09T01:32:01.954Z,90.90
2022-10-09T01:37:05.470Z,91.00
2022-10-09T01:42:10.299Z,90.44
2022-10-09T01:47:18.262Z,90.39
2022-10-09T01:52:48.574Z,91.00
2022-10-09T01:58:01.548Z,91.55
2022-10-09T02:03:08.921Z,91.27
2022-10-09T02:08:18.553Z,91.44
2022-10-09T02:13:21.826Z,92.06
2022-10-09T02:18:39.772Z,91.92
2022-10-09T02:23:45.289Z,91.93
2022-10-09T02:28:48.016Z,91.96
2022-10-09T02:33:58.133Z,92.05
2022-10-09T02:39:01.188Z,91.65
2022-10-09T02:44:05.041Z,92.04
2022-10-09T02:49:07.718Z,91.61
2022-10-09T02:54:10.517Z,92.07
2022-10-09T02:59:13.153Z,92.24
2022-10-09T03:04:16.027Z,91.85
2022-10-09T03:09:18.629Z,92.13
2022-10-09T03:14:21.345Z,91.79
2022-10-09T03:19:23.886Z,91.45
2022-10-09T03:24:26.392Z,91.26
2022-10-09T03:29:29.193Z,91.34
2022-10-09T03:34:31.737Z,91.08
2022-10-09T03:39:34.346Z,91.57
2022-10-09T03:44:36.971Z,90.76
2022-10-09T03:49:39.589Z,90.94
2022-10-09T03:54:42.192Z,90.60
2022-10-09T03:59:44.779Z,90.74
2022-10-09T04:04:47.451Z,90.48
2022-10-09T04:09:50.214Z,90.36
2022-10-09T04:14:52.934Z,90.10
2022-10-09T04:19:55.545Z,90.17
2022-10-09T04:24:58.138Z,89.67
2022-10-09T04:30:00.717Z,89.67
2022-10-09T04:35:03.723Z,88.81
2022-10-09T04:40:06.812Z,88.20
2022-10-09T04:45:10.026Z,87.52
2022-10-09T04:50:12.690Z,87.45
2022-10-09T04:55:15.400Z,86.61
2022-10-09T05:00:18.047Z,86.16
2022-10-09T05:05:20.604Z,85.77
2022-10-09T05:10:23.198Z,84.49
2022-10-09T05:15:26.144Z,84.06
2022-10-09T05:20:29.298Z,82.92
2022-10-09T05:25:32.842Z,82.28
2022-10-09T05:30:35.509Z,81.58
2022-10-09T05:35:38.137Z,80.29
2022-10-09T05:40:53.785Z,79.18
2022-10-09T05:46:04.331Z,78.70
2022-10-09T05:51:08.888Z,77.76
2022-10-09T05:56:15.373Z,76.84
2022-10-09T06:01:18.597Z,75.99
2022-10-09T06:06:23.571Z,74.54
2022-10-09T06:11:31.811Z,74.09
2022-10-09T06:16:37.288Z,73.01
2022-10-09T06:21:40.823Z,71.52
2022-10-09T06:26:43.610Z,71.14
2022-10-09T06:31:46.193Z,70.34
2022-10-09T06:36:49.294Z,69.80
2022-10-09T06:41:51.961Z,69.60
2022-10-09T06:47:15.819Z,68.61
2022-10-09T06:52:18.405Z,67.83
2022-10-09T06:57:20.941Z,67.50
2022-10-09T07:02:23.581Z,66.65
2022-10-09T07:07:26.296Z,66.53
2022-10-09T07:12:28.909Z,66.73
2022-10-09T07:17:31.472Z,66.27
2022-10-09T07:22:34.043Z,65.66
2022-10-09T07:27:36.691Z,65.11
2022-10-09T07:32:39.357Z,64.41
2022-10-09T07:37:41.919Z,63.78
2022-10-09T07:42:44.558Z,63.12
2022-10-09T07:47:47.146Z,62.60
2022-10-09T07:52:50.058Z,61.50
2022-10-09T07:57:52.933Z,61.75
2022-10-09T08:02:55.839Z,60.93
2022-10-09T08:07:58.701Z,59.64
2022-10-09T08:13:01.327Z,59.96
2022-10-09T08:18:03.998Z,59.12
2022-10-09T08:23:06.968Z,58.31
2022-10-09T08:28:09.863Z,56.94
2022-10-09T08:33:12.824Z,56.29
2022-10-09T08:38:37.515Z,55.68
2022-10-09T08:43:44.419Z,54.88
2022-10-09T08:48:48.517Z,54.60
2022-10-09T08:54:30.071Z,54.23
2022-10-09T08:59:34.034Z,53.46
2022-10-09T09:04:45.198Z,52.93
2022-10-09T09:10:11.175Z,51.62
2022-10-09T09:15:45.962Z,51.61
2022-10-09T09:21:14.514Z,51.30
2022-10-09T09:26:20.091Z,51.08
2022-10-09T09:31:30.550Z,50.36
2022-10-09T09:36:52.724Z,49.21
2022-10-09T09:42:15.083Z,47.16
2022-10-09T09:47:26.659Z,48.08
2022-10-09T09:52:35.909Z,47.72
2022-10-09T09:57:43.906Z,47.75
2022-10-09T10:02:46.939Z,47.41
2022-10-09T10:07:50.225Z,46.54
2022-10-09T10:12:53.041Z,46.62
2022-10-09T10:18:04.998Z,47.04
2022-10-09T10:23:21.568Z,46.59
2022-10-09T10:28:37.880Z,45.69
2022-10-09T10:33:43.837Z,44.40
2022-10-09T10:38:57.385Z,44.27
2022-10-09T10:44:30.675Z,44.66
2022-10-09T10:49:34.105Z,44.69
2022-10-09T10:55:00.032Z,44.13
2022-10-09T11:00:14.038Z,43.75
2022-10-09T11:05:41.200Z,44.42
2022-10-09T11:11:08.646Z,43.31
2022-10-09T11:16:46.847Z,44.00
2022-10-09T11:21:58.578Z,44.56
2022-10-09T11:27:24.025Z,45.11
2022-10-09T11:32:38.146Z,46.19
2022-10-09T11:37:44.051Z,46.73
2022-10-09T11:42:59.410Z,47.24
2022-10-09T11:48:40.393Z,47.72
2022-10-09T11:53:44.516Z,48.41
2022-10-09T11:59:08.003Z,48.78
2022-10-09T12:04:13.648Z,49.05
2022-10-09T12:09:32.843Z,49.23
2022-10-09T12:14:38.457Z,49.86
2022-10-09T12:19:42.368Z,50.18
2022-10-09T12:24:49.097Z,50.75
2022-10-09T12:30:05.558Z,51.11
2022-10-09T12:35:33.648Z,53.98
2022-10-09T12:40:37.396Z,58.98
2022-10-09T12:45:44.398Z,61.13
2022-10-09T12:50:47.469Z,63.91
2022-10-09T12:55:58.700Z,66.04
2022-10-09T13:01:04.361Z,67.74
2022-10-09T13:06:32.812Z,69.64
2022-10-09T13:11:44.985Z,70.73
2022-10-09T13:16:48.848Z,72.01
2022-10-09T13:22:13.402Z,71.93
2022-10-09T13:27:16.317Z,72.72
2022-10-09T13:32:19.654Z,73.36
2022-10-09T13:37:24.873Z,74.98
2022-10-09T13:42:32.596Z,75.31
2022-10-09T13:47:35.223Z,75.67
2022-10-09T13:57:46.413Z,76.99
2022-10-09T14:02:49.063Z,77.74
2022-10-09T14:07:51.865Z,78.20
2022-10-09T14:12:54.785Z,78.94
2022-10-09T14:17:57.361Z,79.67
2022-10-09T14:22:59.983Z,80.54
2022-10-09T14:28:03.059Z,81.88
2022-10-09T14:33:05.689Z,81.88
2022-10-09T14:38:08.442Z,82.46
2022-10-09T14:43:11.847Z,83.67
2022-10-09T14:48:14.448Z,84.26
2022-10-09T14:53:17.000Z,85.23
2022-10-09T14:58:19.713Z,86.04
2022-10-09T15:03:22.472Z,86.55
2022-10-09T15:08:26.127Z,87.17
2022-10-09T15:13:29.395Z,87.78
2022-10-09T15:18:32.890Z,88.30
2022-10-09T15:23:35.497Z,88.66
2022-10-09T15:28:39.555Z,89.24
2022-10-09T15:33:42.321Z,89.62
2022-10-09T15:38:45.158Z,89.91
2022-10-09T15:43:48.335Z,90.98
2022-10-09T15:48:51.813Z,91.48
2022-10-09T15:53:54.426Z,92.09
2022-10-09T15:58:58.376Z,91.35
2022-10-09T16:04:01.053Z,92.21
2022-10-09T16:09:05.573Z,92.54
2022-10-09T16:14:08.165Z,93.07
2022-10-09T16:19:10.852Z,92.99
2022-10-09T16:24:13.405Z,93.00
2022-10-09T16:29:16.278Z,93.14
2022-10-09T16:34:18.977Z,93.35
2022-10-09T16:39:23.802Z,93.72
2022-10-09T16:44:26.440Z,93.96
2022-10-09T16:49:29.100Z,93.85
2022-10-09T16:54:31.826Z,94.26
2022-10-09T16:59:34.429Z,94.35
2022-10-09T17:04:37.717Z,94.66
2022-10-09T17:09:41.309Z,94.73
2022-10-09T17:14:44.246Z,94.67
2022-10-09T17:19:46.961Z,94.52
2022-10-09T17:24:49.630Z,94.71
2022-10-09T17:29:52.338Z,94.86
2022-10-09T17:34:54.904Z,95.02
2022-10-09T17:39:57.696Z,94.79
2022-10-09T17:45:00.651Z,94.94
2022-10-09T17:50:03.442Z,94.87
2022-10-09T17:55:07.125Z,95.25
2022-10-09T18:00:10.574Z,95.28
2022-10-09T18:05:13.243Z,94.52
2022-10-09T18:10:17.007Z,94.88
2022-10-09T18:15:20.004Z,95.04
2022-10-09T18:20:22.916Z,94.99
2022-10-09T18:25:25.571Z,94.95
2022-10-09T18:30:28.233Z,95.13
2022-10-09T18:35:31.034Z,95.11
2022-10-09T18:40:45.516Z,95.07
2022-10-09T18:45:48.740Z,94.87
2022-10-09T18:50:51.400Z,95.26
2022-10-09T18:55:54.136Z,95.69
2022-10-09T19:00:56.726Z,95.52
2022-10-09T19:05:59.389Z,95.97
2022-10-09T19:11:02.321Z,95.85
2022-10-09T19:16:05.800Z,95.79
2022-10-09T19:21:13.162Z,96.12
2022-10-09T19:26:16.234Z,95.78
2022-10-09T19:31:18.937Z,95.96
2022-10-09T19:36:21.557Z,96.00
2022-10-09T19:41:24.166Z,95.85
2022-10-09T19:46:27.204Z,95.77
2022-10-09T19:51:29.970Z,96.06
2022-10-09T19:56:35.308Z,95.83
2022-10-09T20:01:40.186Z,95.77
2022-10-09T20:06:43.377Z,96.15
2022-10-09T20:11:46.045Z,95.80
2022-10-09T20:16:48.772Z,95.79
2022-10-09T20:21:51.507Z,96.30
2022-10-09T20:26:54.181Z,96.13
2022-10-09T20:31:56.823Z,96.67
2022-10-09T20:36:59.430Z,97.11
2022-10-09T20:42:02.054Z,97.29
2022-10-09T20:47:04.734Z,96.97
2022-10-09T20:52:07.285Z,96.87
2022-10-09T20:57:10.774Z,96.74
2022-10-09T21:02:14.345Z,97.09
2022-10-09T21:07:16.941Z,96.72
2022-10-09T21:12:19.545Z,97.49
2022-10-09T21:17:22.095Z,97.38
2022-10-09T21:22:25.761Z,97.77
2022-10-09T21:27:30.070Z,97.98
2022-10-09T21:32:32.957Z,98.40
2022-10-09T21:37:37.466Z,98.17
2022-10-09T21:42:40.228Z,98.01
2022-10-09T21:47:42.845Z,97.96
2022-10-09T21:52:48.386Z,97.86
2022-10-09T21:57:52.026Z,98.04
2022-10-09T22:02:54.921Z,98.20
2022-10-09T22:07:57.552Z,98.20
2022-10-09T22:13:00.222Z,98.27
2022-10-09T22:18:02.833Z,97.96
2022-10-09T22:23:05.437Z,97.58
2022-10-09T22:28:08.398Z,97.79
2022-10-09T22:33:11.016Z,98.31
2022-10-09T22:38:13.612Z,98.16
2022-10-09T22:43:16.228Z,98.29
2022-10-09T22:48:18.928Z,98.00
2022-10-09T22:53:21.585Z,97.80
2022-10-09T22:58:24.469Z,98.04
2022-10-09T23:03:27.021Z,98.02
2022-10-09T23:08:29.831Z,98.07
2022-10-09T23:13:32.740Z,98.05
2022-10-09T23:18:36.269Z,98.07
2022-10-09T23:23:39.280Z,97.96
2022-10-09T23:28:43.021Z,97.71
2022-10-09T23:33:46.592Z,97.73
2022-10-09T23:38:50.275Z,97.79
2022-10-09T23:43:53.392Z,97.41
2022-10-09T23:48:56.644Z,97.45
2022-10-09T23:53:59.870Z,97.56
2022-10-09T23:59:06.317Z,97.75
